Weather at St Pierre Airport

Public forecast

Using degrees Celsius for public forecast. Weather courtesy of forecast.io.

Current aviation weather report (METAR) for St Pierre Airport

Retrieved 2021/01/24 16:00 UTC (35 minutes ago):

LFVP 241600Z 04004KT 340V080 9999 BKN033 01/M07 Q0990 NOSIG

Aviation forecast (TAF) for St Pierre Airport

Retrieved 2021/01/24 15:00 UTC (2 hours ago):

TAF LFVP 241400Z 2415/2424 VRB05KT 9999 BKN030 BECMG 2422/2424 30010KT